createdAt,value
2022-08-22T00:01:32.849Z,71.60
2022-08-22T00:04:15.328Z,71.80
2022-08-22T00:06:56.518Z,71.50
2022-08-22T00:09:34.511Z,71.60
2022-08-22T00:12:21.408Z,71.70
2022-08-22T00:14:56.473Z,72.00
2022-08-22T00:17:35.040Z,71.60
2022-08-22T00:20:04.819Z,72.00
2022-08-22T00:22:42.518Z,72.20
2022-08-22T00:25:33.136Z,72.50
2022-08-22T00:28:11.884Z,73.70
2022-08-22T00:30:51.992Z,73.50
2022-08-22T00:33:27.582Z,73.40
2022-08-22T00:36:07.486Z,73.40
2022-08-22T00:38:42.443Z,73.90
2022-08-22T00:41:42.640Z,73.70
2022-08-22T00:44:09.304Z,74.70
2022-08-22T00:46:42.188Z,73.60
2022-08-22T00:49:29.103Z,74.80
2022-08-22T00:52:06.740Z,75.10
2022-08-22T00:54:55.684Z,75.20
2022-08-22T00:57:28.115Z,74.70
2022-08-22T01:00:19.965Z,75.10
2022-08-22T01:03:23.956Z,76.60
2022-08-22T01:05:59.547Z,76.00
2022-08-22T01:08:50.979Z,75.90
2022-08-22T01:11:57.343Z,76.20
2022-08-22T01:14:34.607Z,77.00
2022-08-22T01:17:16.807Z,76.80
2022-08-22T01:20:20.904Z,76.20
2022-08-22T01:23:22.229Z,77.50
2022-08-22T01:26:13.036Z,77.70
2022-08-22T01:29:11.782Z,77.20
2022-08-22T01:32:05.472Z,77.80
2022-08-22T01:34:53.956Z,77.80
2022-08-22T01:37:45.277Z,78.30
2022-08-22T01:40:29.568Z,77.20
2022-08-22T01:43:17.196Z,78.20
2022-08-22T01:46:29.453Z,78.70
2022-08-22T01:49:09.637Z,79.10
2022-08-22T01:52:06.921Z,78.50
2022-08-22T01:54:42.881Z,79.50
2022-08-22T01:57:10.992Z,79.00
2022-08-22T01:59:50.797Z,79.10
2022-08-22T02:02:43.643Z,80.50
2022-08-22T02:05:13.167Z,80.40
2022-08-22T02:07:51.956Z,79.60
2022-08-22T02:10:44.915Z,81.00
2022-08-22T02:13:14.530Z,80.80
2022-08-22T02:15:41.179Z,80.40
2022-08-22T02:18:22.954Z,80.30
2022-08-22T02:21:08.785Z,81.20
2022-08-22T02:23:57.711Z,81.80
2022-08-22T02:27:04.178Z,81.80
2022-08-22T02:29:46.298Z,82.40
2022-08-22T02:32:42.032Z,82.50
2022-08-22T02:35:46.837Z,82.30
2022-08-22T02:38:24.025Z,82.60
2022-08-22T02:41:02.861Z,82.70
2022-08-22T02:43:39.438Z,82.70
2022-08-22T02:46:38.275Z,82.80
2022-08-22T02:49:29.505Z,83.50
2022-08-22T02:52:37.201Z,83.30
2022-08-22T02:55:14.249Z,84.00
2022-08-22T02:57:52.367Z,83.20
2022-08-22T03:00:30.709Z,83.50
2022-08-22T03:02:59.605Z,83.50
2022-08-22T03:05:37.567Z,83.00
2022-08-22T03:08:23.324Z,83.80
2022-08-22T03:11:26.283Z,84.60
2022-08-22T03:14:18.763Z,84.10
2022-08-22T03:17:17.686Z,84.30
2022-08-22T03:20:13.774Z,84.40
2022-08-22T03:23:02.205Z,84.80
2022-08-22T03:25:35.006Z,83.90
2022-08-22T03:28:10.092Z,84.10
2022-08-22T03:31:15.561Z,84.00
2022-08-22T03:33:43.226Z,85.40
2022-08-22T03:36:15.685Z,84.00
2022-08-22T03:39:17.387Z,84.60
2022-08-22T03:42:03.142Z,85.30
2022-08-22T03:44:51.858Z,84.70
2022-08-22T03:47:18.430Z,85.90
2022-08-22T03:50:20.910Z,84.60
2022-08-22T03:53:18.991Z,86.00
2022-08-22T03:55:46.011Z,84.50
2022-08-22T03:58:33.511Z,84.40
2022-08-22T04:01:19.350Z,85.20
2022-08-22T04:04:04.806Z,85.60
2022-08-22T04:06:48.315Z,85.70
2022-08-22T04:09:30.021Z,85.70
2022-08-22T04:12:31.852Z,85.50
2022-08-22T04:15:04.342Z,86.60
2022-08-22T04:18:08.964Z,85.00
2022-08-22T04:20:56.650Z,85.70
2022-08-22T04:23:45.004Z,85.20
2022-08-22T04:26:29.292Z,86.60
2022-08-22T04:29:08.154Z,86.50
2022-08-22T04:31:46.377Z,85.90
2022-08-22T04:34:31.879Z,86.50
2022-08-22T04:37:09.718Z,87.50
2022-08-22T04:39:53.715Z,87.30
2022-08-22T04:42:34.899Z,86.50
2022-08-22T04:45:30.971Z,86.90
2022-08-22T04:48:33.547Z,87.00
2022-08-22T04:51:26.291Z,87.40
2022-08-22T04:54:25.362Z,87.30
2022-08-22T04:56:55.152Z,87.70
2022-08-22T04:59:24.863Z,87.50
2022-08-22T05:01:57.606Z,87.80
2022-08-22T05:04:35.298Z,87.80
2022-08-22T05:07:18.037Z,88.40
2022-08-22T05:09:52.575Z,88.80
2022-08-22T05:12:29.285Z,88.50
2022-08-22T05:15:04.211Z,88.20
2022-08-22T05:17:34.389Z,87.90
2022-08-22T05:20:08.619Z,87.70
2022-08-22T05:22:41.255Z,88.50
2022-08-22T05:25:20.332Z,88.20
2022-08-22T05:27:57.163Z,87.70
2022-08-22T05:30:28.245Z,88.00
2022-08-22T05:33:26.700Z,88.10
2022-08-22T05:35:59.056Z,88.90
2022-08-22T05:38:33.890Z,88.50
2022-08-22T05:41:09.973Z,88.70
2022-08-22T05:43:40.596Z,89.00
2022-08-22T05:46:15.901Z,88.50
2022-08-22T05:49:00.116Z,89.00
2022-08-22T05:51:54.643Z,89.20
2022-08-22T05:54:34.532Z,89.30
2022-08-22T05:57:20.689Z,89.00
2022-08-22T05:59:50.907Z,89.30
2022-08-22T06:02:22.570Z,89.30
2022-08-22T06:04:54.670Z,89.30
2022-08-22T06:07:35.963Z,89.50
2022-08-22T06:10:23.144Z,89.50
2022-08-22T06:13:01.956Z,89.40
2022-08-22T06:15:45.516Z,89.60
2022-08-22T06:18:21.014Z,89.60
2022-08-22T06:21:09.896Z,89.20
2022-08-22T06:23:38.985Z,89.40
2022-08-22T06:26:06.745Z,89.10
2022-08-22T06:28:55.385Z,88.80
2022-08-22T06:31:27.767Z,88.60
2022-08-22T06:34:22.906Z,88.60
2022-08-22T06:36:51.634Z,89.00
2022-08-22T06:39:33.973Z,88.50
2022-08-22T06:42:23.045Z,88.20
2022-08-22T06:45:06.965Z,88.30
2022-08-22T06:47:43.470Z,88.40
2022-08-22T06:50:31.777Z,88.20
2022-08-22T06:53:07.773Z,87.80
2022-08-22T06:55:35.898Z,87.70
2022-08-22T06:58:07.033Z,88.10
2022-08-22T07:00:35.281Z,88.00
2022-08-22T07:03:13.598Z,88.10
2022-08-22T07:05:42.739Z,87.80
2022-08-22T07:08:20.106Z,86.70
2022-08-22T07:11:06.192Z,84.10
2022-08-22T07:13:36.982Z,83.00
2022-08-22T07:16:08.058Z,82.20
2022-08-22T07:18:44.994Z,80.80
2022-08-22T07:21:11.705Z,79.70
2022-08-22T07:23:44.405Z,77.90
2022-08-22T07:26:31.470Z,75.70
2022-08-22T07:29:40.379Z,74.00
2022-08-22T07:32:22.495Z,73.00
2022-08-22T07:35:04.350Z,72.60
2022-08-22T07:37:49.982Z,71.70
2022-08-22T07:40:27.270Z,71.30
2022-08-22T07:42:53.866Z,71.90
2022-08-22T07:45:37.683Z,72.00
2022-08-22T07:48:26.274Z,70.30
2022-08-22T07:51:14.715Z,69.90
2022-08-22T07:53:44.963Z,69.00
2022-08-22T07:56:42.211Z,69.20
2022-08-22T07:59:17.967Z,68.40
2022-08-22T08:01:48.266Z,68.50
2022-08-22T08:04:20.651Z,68.30
2022-08-22T08:06:52.604Z,68.40
2022-08-22T08:09:20.204Z,68.20
2022-08-22T08:11:51.708Z,68.20
2022-08-22T08:14:21.752Z,68.10
2022-08-22T08:17:19.006Z,68.30
2022-08-22T08:19:47.285Z,68.40
2022-08-22T08:22:25.914Z,69.00
2022-08-22T08:24:55.803Z,68.60
2022-08-22T08:27:44.752Z,68.70
2022-08-22T08:30:35.261Z,68.60
2022-08-22T08:33:25.692Z,68.20
2022-08-22T08:36:04.112Z,67.80
2022-08-22T08:38:48.548Z,67.10
2022-08-22T08:41:45.558Z,67.70
2022-08-22T08:44:37.803Z,67.40
2022-08-22T08:47:23.622Z,67.00
2022-08-22T08:50:09.574Z,66.60
2022-08-22T08:53:11.005Z,67.20
2022-08-22T08:56:01.895Z,65.40
2022-08-22T08:58:40.298Z,65.20
2022-08-22T09:01:16.409Z,64.90
2022-08-22T09:04:17.202Z,65.40
2022-08-22T09:06:58.691Z,64.80
2022-08-22T09:09:37.258Z,65.60
2022-08-22T09:12:56.128Z,65.00
2022-08-22T09:18:40.845Z,63.60
2022-08-22T09:21:45.466Z,63.80
2022-08-22T09:24:39.846Z,62.20
2022-08-22T09:27:37.833Z,61.80
2022-08-22T09:30:15.458Z,62.50
2022-08-22T09:33:03.994Z,62.80
2022-08-22T09:36:18.369Z,62.60
2022-08-22T09:38:53.794Z,61.90
2022-08-22T09:40:16.501Z,63.20
2022-08-22T09:41:48.030Z,62.60
2022-08-22T09:44:39.702Z,62.10
2022-08-22T09:47:24.577Z,61.90
2022-08-22T09:50:12.279Z,62.10
2022-08-22T09:52:47.526Z,62.10
2022-08-22T09:55:40.337Z,61.70
2022-08-22T09:58:45.743Z,60.40
2022-08-22T10:01:18.306Z,60.00
2022-08-22T10:04:10.657Z,59.90
2022-08-22T10:07:08.559Z,59.40
2022-08-22T10:10:01.215Z,59.70
2022-08-22T10:12:36.092Z,59.60
2022-08-22T10:15:20.267Z,58.80
2022-08-22T10:18:26.182Z,58.80
2022-08-22T10:21:39.686Z,58.70
2022-08-22T10:24:30.910Z,59.30
2022-08-22T10:27:03.662Z,58.80
2022-08-22T10:29:50.853Z,58.20
2022-08-22T10:32:54.218Z,57.70
2022-08-22T10:35:28.529Z,57.30
2022-08-22T10:38:19.000Z,57.30
2022-08-22T10:40:53.252Z,56.60
2022-08-22T10:43:36.404Z,56.10
2022-08-22T10:46:33.124Z,55.40
2022-08-22T10:49:15.380Z,55.00
2022-08-22T10:52:14.710Z,54.70
2022-08-22T10:54:51.345Z,53.90
2022-08-22T10:57:42.945Z,53.70
2022-08-22T11:00:22.672Z,53.20
2022-08-22T11:03:18.681Z,52.70
2022-08-22T11:05:52.101Z,53.40
2022-08-22T11:08:45.317Z,53.30
2022-08-22T11:11:32.666Z,52.10
2022-08-22T11:14:11.973Z,52.10
2022-08-22T11:16:56.140Z,52.30
2022-08-22T11:19:40.581Z,50.80
2022-08-22T11:22:31.830Z,50.70
2022-08-22T11:25:38.791Z,50.40
2022-08-22T11:28:48.255Z,50.50
2022-08-22T11:31:23.606Z,50.20
2022-08-22T11:34:03.403Z,50.70
2022-08-22T11:36:50.381Z,50.60
2022-08-22T11:39:45.079Z,50.90
2022-08-22T11:42:32.503Z,51.40
2022-08-22T11:45:01.645Z,51.40
2022-08-22T11:47:36.746Z,51.30
2022-08-22T11:50:21.448Z,51.20
2022-08-22T11:53:18.584Z,50.10
2022-08-22T11:56:00.260Z,50.20
2022-08-22T11:59:09.648Z,49.90
2022-08-22T12:01:48.834Z,49.70
2022-08-22T12:04:37.234Z,50.40
2022-08-22T12:07:26.951Z,50.30
2022-08-22T12:10:17.199Z,50.20
2022-08-22T12:13:02.253Z,50.30
2022-08-22T12:15:34.157Z,50.60
2022-08-22T12:18:25.294Z,50.90
2022-08-22T12:21:16.098Z,51.10
2022-08-22T12:23:52.208Z,51.20
2022-08-22T12:26:24.799Z,51.40
2022-08-22T12:29:15.463Z,50.10
2022-08-22T12:32:26.288Z,50.10
2022-08-22T12:35:00.732Z,48.10
2022-08-22T12:37:37.215Z,48.70
2022-08-22T12:40:56.861Z,48.10
2022-08-22T12:43:32.422Z,48.20
2022-08-22T12:46:46.775Z,48.00
2022-08-22T12:49:38.484Z,48.70
2022-08-22T12:52:10.989Z,48.30
2022-08-22T12:54:58.153Z,48.20
2022-08-22T12:57:42.878Z,47.70
2022-08-22T13:00:45.258Z,47.70
2022-08-22T13:03:34.482Z,47.70
2022-08-22T13:06:26.270Z,47.30
2022-08-22T13:08:54.350Z,47.90
2022-08-22T13:11:23.745Z,48.50
2022-08-22T13:13:58.715Z,48.30
2022-08-22T13:16:36.977Z,48.30
2022-08-22T13:19:13.577Z,48.00
2022-08-22T13:21:59.571Z,48.50
2022-08-22T13:24:52.287Z,48.80
2022-08-22T13:27:33.876Z,48.70
2022-08-22T13:30:12.426Z,49.20
2022-08-22T13:32:44.513Z,48.30
2022-08-22T13:35:30.296Z,48.70
2022-08-22T13:38:12.312Z,48.80
2022-08-22T13:40:44.556Z,48.60
2022-08-22T13:43:23.615Z,49.20
2022-08-22T13:45:56.000Z,48.70
2022-08-22T13:48:28.671Z,48.50
2022-08-22T13:51:18.489Z,48.80
2022-08-22T13:54:00.883Z,48.60
2022-08-22T13:56:39.010Z,48.50
2022-08-22T13:59:49.503Z,48.60
2022-08-22T14:02:38.806Z,48.40
2022-08-22T14:05:17.387Z,48.20
2022-08-22T14:08:02.986Z,48.40
2022-08-22T14:10:34.455Z,48.20
2022-08-22T14:13:01.076Z,48.10
2022-08-22T14:15:44.743Z,48.30
2022-08-22T14:18:45.518Z,48.00
2022-08-22T14:21:41.285Z,47.40
2022-08-22T14:24:13.774Z,48.10
2022-08-22T14:27:12.598Z,48.90
2022-08-22T14:29:54.329Z,48.50
2022-08-22T14:32:22.620Z,48.30
2022-08-22T14:35:00.501Z,48.70
2022-08-22T14:37:35.234Z,48.40
2022-08-22T14:40:29.577Z,48.60
2022-08-22T14:43:00.377Z,48.50
2022-08-22T14:45:33.053Z,48.70
2022-08-22T14:48:14.178Z,48.90
2022-08-22T14:51:09.993Z,48.70
2022-08-22T14:53:40.063Z,48.00
2022-08-22T14:56:29.239Z,47.80
2022-08-22T14:59:04.327Z,47.30
2022-08-22T15:01:34.996Z,47.00
2022-08-22T15:04:07.686Z,47.20
2022-08-22T15:06:39.475Z,47.20
2022-08-22T15:09:55.921Z,47.20
2022-08-22T15:12:49.417Z,47.00
2022-08-22T15:15:49.302Z,46.80
2022-08-22T15:18:35.342Z,46.50
2022-08-22T15:21:08.606Z,46.80
2022-08-22T15:23:45.429Z,47.10
2022-08-22T15:26:24.665Z,47.10
2022-08-22T15:29:15.189Z,46.80
2022-08-22T15:31:44.922Z,47.00
2022-08-22T15:34:23.998Z,46.90
2022-08-22T15:37:17.785Z,47.40
2022-08-22T15:40:02.848Z,47.90
2022-08-22T15:42:40.972Z,48.40
2022-08-22T15:45:34.745Z,48.50
2022-08-22T15:48:07.558Z,48.90
2022-08-22T15:51:00.425Z,48.80
2022-08-22T15:53:55.098Z,48.70
2022-08-22T15:56:28.214Z,48.80
2022-08-22T15:59:25.988Z,48.90
2022-08-22T16:02:01.102Z,48.90
2022-08-22T16:04:36.074Z,49.00
2022-08-22T16:07:19.262Z,48.90
2022-08-22T16:09:50.022Z,48.90
2022-08-22T16:12:40.824Z,49.10
2022-08-22T16:15:46.136Z,49.50
2022-08-22T16:18:34.448Z,49.60
2022-08-22T16:21:02.941Z,49.60
2022-08-22T16:23:49.629Z,49.60
2022-08-22T16:26:31.291Z,49.90
2022-08-22T16:29:12.385Z,49.80
2022-08-22T16:31:44.605Z,50.00
2022-08-22T16:34:20.302Z,50.00
2022-08-22T16:37:17.970Z,49.90
2022-08-22T16:39:52.245Z,50.00
2022-08-22T16:42:21.707Z,49.80
2022-08-22T16:45:05.530Z,50.40
2022-08-22T16:47:36.218Z,49.70
2022-08-22T16:50:24.206Z,49.80
2022-08-22T16:53:14.643Z,50.00
2022-08-22T16:55:45.125Z,50.20
2022-08-22T16:58:50.245Z,50.10
2022-08-22T17:01:42.817Z,51.00
2022-08-22T17:04:26.673Z,50.30
2022-08-22T17:07:04.276Z,50.20
2022-08-22T17:09:44.068Z,50.20
2022-08-22T17:12:39.078Z,50.10
2022-08-22T17:15:29.350Z,50.10
2022-08-22T17:18:25.467Z,50.50
2022-08-22T17:21:01.339Z,50.40
2022-08-22T17:23:37.230Z,50.50
2022-08-22T17:26:27.965Z,50.50
2022-08-22T17:29:04.436Z,50.70
2022-08-22T17:31:53.908Z,50.80
2022-08-22T17:34:47.304Z,50.80
2022-08-22T17:37:30.499Z,51.00
2022-08-22T17:40:24.174Z,50.90
2022-08-22T17:43:26.911Z,51.20
2022-08-22T17:45:56.579Z,51.10
2022-08-22T17:48:38.688Z,51.20
2022-08-22T17:51:28.274Z,51.40
2022-08-22T17:54:14.475Z,51.50
2022-08-22T17:57:05.434Z,51.60
2022-08-22T17:59:46.618Z,51.60
2022-08-22T18:02:19.060Z,51.80
2022-08-22T18:04:59.045Z,51.70
2022-08-22T18:07:48.846Z,52.00
2022-08-22T18:10:15.517Z,52.00
2022-08-22T18:13:06.904Z,52.10
2022-08-22T18:15:58.587Z,52.40
2022-08-22T18:18:45.496Z,52.60
2022-08-22T18:22:05.258Z,52.50
2022-08-22T18:24:48.797Z,52.60
2022-08-22T18:27:44.167Z,52.50
2022-08-22T18:30:13.597Z,52.40
2022-08-22T18:32:53.899Z,52.40
2022-08-22T18:35:27.472Z,52.50
2022-08-22T18:38:19.515Z,52.50
2022-08-22T18:40:56.653Z,52.80
2022-08-22T18:43:35.716Z,52.80
2022-08-22T18:46:23.910Z,52.90
2022-08-22T18:49:14.161Z,53.00
2022-08-22T18:51:38.763Z,52.90
2022-08-22T18:54:05.542Z,53.00
2022-08-22T18:56:49.685Z,53.10
2022-08-22T18:59:41.288Z,53.30
2022-08-22T19:02:22.234Z,53.50
2022-08-22T19:05:19.555Z,53.40
2022-08-22T19:08:07.013Z,53.70
2022-08-22T19:10:42.300Z,53.80
2022-08-22T19:13:49.156Z,53.70
2022-08-22T19:16:25.467Z,54.10
2022-08-22T19:18:59.414Z,54.30
2022-08-22T19:21:49.389Z,54.30
2022-08-22T19:24:29.608Z,54.40
2022-08-22T19:27:25.625Z,54.60
2022-08-22T19:30:02.187Z,54.60
2022-08-22T19:32:44.240Z,54.50
2022-08-22T19:35:23.810Z,54.80
2022-08-22T19:37:57.528Z,54.70
2022-08-22T19:40:46.075Z,54.80
2022-08-22T19:43:28.170Z,55.10
2022-08-22T19:45:55.977Z,55.00
2022-08-22T19:48:45.835Z,55.10
2022-08-22T19:51:21.715Z,55.30
2022-08-22T19:53:57.336Z,55.40
2022-08-22T19:57:00.353Z,55.40
2022-08-22T20:00:00.064Z,55.70
2022-08-22T20:02:49.778Z,55.70
2022-08-22T20:05:20.483Z,55.60
2022-08-22T20:08:13.415Z,55.60
2022-08-22T20:11:21.781Z,55.90
2022-08-22T20:13:49.773Z,56.20
2022-08-22T20:16:23.299Z,56.00
2022-08-22T20:19:02.014Z,56.00
2022-08-22T20:21:58.256Z,56.00
2022-08-22T20:24:40.064Z,56.20
2022-08-22T20:27:21.863Z,56.20
2022-08-22T20:29:54.147Z,56.20
2022-08-22T20:32:23.734Z,56.30
2022-08-22T20:34:55.198Z,56.40
2022-08-22T20:39:44.861Z,55.80
2022-08-22T20:42:15.323Z,56.70
2022-08-22T20:44:44.947Z,56.60
2022-08-22T20:47:23.852Z,56.60
2022-08-22T20:50:07.559Z,56.70
2022-08-22T20:52:37.591Z,57.00
2022-08-22T20:55:06.826Z,56.80
2022-08-22T20:57:35.309Z,57.00
2022-08-22T21:00:13.213Z,57.20
2022-08-22T21:02:51.561Z,57.60
2022-08-22T21:05:22.460Z,57.50
2022-08-22T21:08:04.448Z,57.30
2022-08-22T21:10:53.641Z,57.50
2022-08-22T21:13:25.957Z,57.30
2022-08-22T21:15:59.270Z,57.30
2022-08-22T21:18:35.018Z,57.50
2022-08-22T21:21:18.186Z,57.60
2022-08-22T21:23:58.622Z,57.60
2022-08-22T21:26:38.389Z,57.70
2022-08-22T21:29:13.739Z,57.80
2022-08-22T21:31:45.556Z,57.80
2022-08-22T21:34:24.600Z,57.80
2022-08-22T21:36:54.145Z,57.90
2022-08-22T21:39:24.341Z,57.90
2022-08-22T21:41:59.394Z,57.90
2022-08-22T21:44:31.773Z,58.10
2022-08-22T21:47:14.534Z,58.20
2022-08-22T21:50:02.789Z,58.70
2022-08-22T21:52:34.929Z,59.10
2022-08-22T21:55:20.451Z,58.40
2022-08-22T21:57:47.547Z,59.40
2022-08-22T22:00:52.042Z,58.80
2022-08-22T22:03:43.330Z,59.70
2022-08-22T22:06:11.203Z,59.40
2022-08-22T22:08:37.863Z,59.40
2022-08-22T22:11:08.400Z,59.90
2022-08-22T22:13:36.321Z,60.00
2022-08-22T22:16:03.361Z,60.00
2022-08-22T22:18:32.659Z,59.70
2022-08-22T22:21:00.053Z,59.80
2022-08-22T22:23:27.314Z,60.00
2022-08-22T22:25:56.334Z,59.70
2022-08-22T22:28:28.515Z,59.40
2022-08-22T22:30:55.287Z,59.50
2022-08-22T22:33:31.441Z,59.50
2022-08-22T22:36:03.937Z,60.00
2022-08-22T22:38:30.799Z,59.70
2022-08-22T22:40:57.573Z,60.00
2022-08-22T22:43:25.852Z,59.90
2022-08-22T22:45:52.560Z,60.10
2022-08-22T22:48:24.158Z,60.00
2022-08-22T22:50:52.888Z,59.90
2022-08-22T22:53:21.467Z,60.00
2022-08-22T22:56:06.723Z,60.40
2022-08-22T22:58:35.389Z,60.00
2022-08-22T23:01:18.686Z,60.20
2022-08-22T23:03:46.485Z,60.30
2022-08-22T23:06:16.155Z,59.90
2022-08-22T23:08:43.200Z,60.00
2022-08-22T23:11:18.816Z,59.90
2022-08-22T23:13:46.245Z,60.20
2022-08-22T23:16:16.815Z,60.00
2022-08-22T23:18:44.552Z,60.50
2022-08-22T23:21:12.950Z,60.20
2022-08-22T23:23:39.981Z,60.00
2022-08-22T23:26:06.832Z,60.00
2022-08-22T23:28:33.571Z,60.00
2022-08-22T23:31:32.155Z,60.20
2022-08-22T23:34:06.782Z,60.90
2022-08-22T23:36:33.921Z,60.60
2022-08-22T23:39:00.766Z,60.40
2022-08-22T23:41:27.432Z,60.40
2022-08-22T23:43:55.330Z,60.50
2022-08-22T23:46:24.221Z,60.40
2022-08-22T23:48:51.053Z,60.30
2022-08-22T23:51:22.955Z,60.40
2022-08-22T23:53:50.352Z,60.60
2022-08-22T23:56:38.508Z,60.70
2022-08-22T23:59:10.356Z,60.80
